sensor_id;sensor_type;location;lat;lon;timestamp;P1;durP1;ratioP1;P2;durP2;ratioP2
68614;SDS011;55593;51.994;5.882;2024-01-16T00:00:21;15.18;;;2.88;;
68614;SDS011;55593;51.994;5.882;2024-01-16T00:02:50;12.15;;;3.45;;
68614;SDS011;55593;51.994;5.882;2024-01-16T00:05:19;17.90;;;3.92;;
68614;SDS011;55593;51.994;5.882;2024-01-16T00:07:48;12.93;;;2.78;;
68614;SDS011;55593;51.994;5.882;2024-01-16T00:10:17;11.00;;;2.80;;
68614;SDS011;55593;51.994;5.882;2024-01-16T00:12:47;11.20;;;2.30;;
68614;SDS011;55593;51.994;5.882;2024-01-16T00:15:18;14.80;;;2.92;;
68614;SDS011;55593;51.994;5.882;2024-01-16T00:17:48;14.98;;;2.83;;
68614;SDS011;55593;51.994;5.882;2024-01-16T00:20:17;10.45;;;2.63;;
68614;SDS011;55593;51.994;5.882;2024-01-16T00:22:47;9.60;;;2.60;;
68614;SDS011;55593;51.994;5.882;2024-01-16T00:25:17;11.23;;;2.60;;
68614;SDS011;55593;51.994;5.882;2024-01-16T00:27:45;9.57;;;2.20;;
68614;SDS011;55593;51.994;5.882;2024-01-16T00:30:15;8.75;;;2.20;;
68614;SDS011;55593;51.994;5.882;2024-01-16T00:32:46;9.80;;;2.40;;
68614;SDS011;55593;51.994;5.882;2024-01-16T00:35:15;10.32;;;2.15;;
68614;SDS011;55593;51.994;5.882;2024-01-16T00:37:45;10.65;;;2.15;;
68614;SDS011;55593;51.994;5.882;2024-01-16T00:40:14;7.32;;;2.00;;
68614;SDS011;55593;51.994;5.882;2024-01-16T00:42:43;10.60;;;3.40;;
68614;SDS011;55593;51.994;5.882;2024-01-16T00:45:12;12.13;;;2.72;;
68614;SDS011;55593;51.994;5.882;2024-01-16T00:47:42;13.38;;;2.10;;
68614;SDS011;55593;51.994;5.882;2024-01-16T00:50:14;11.73;;;2.45;;
68614;SDS011;55593;51.994;5.882;2024-01-16T00:52:43;11.68;;;2.30;;
68614;SDS011;55593;51.994;5.882;2024-01-16T00:55:12;10.02;;;2.78;;
68614;SDS011;55593;51.994;5.882;2024-01-16T00:57:43;13.27;;;1.88;;
68614;SDS011;55593;51.994;5.882;2024-01-16T01:00:12;9.98;;;3.30;;
68614;SDS011;55593;51.994;5.882;2024-01-16T01:02:41;12.00;;;2.03;;
68614;SDS011;55593;51.994;5.882;2024-01-16T01:05:11;17.40;;;2.67;;
68614;SDS011;55593;51.994;5.882;2024-01-16T01:07:43;11.48;;;2.90;;
68614;SDS011;55593;51.994;5.882;2024-01-16T01:10:12;12.45;;;2.13;;
68614;SDS011;55593;51.994;5.882;2024-01-16T01:12:41;16.58;;;3.90;;
68614;SDS011;55593;51.994;5.882;2024-01-16T01:15:10;12.13;;;2.25;;
68614;SDS011;55593;51.994;5.882;2024-01-16T01:17:39;11.13;;;2.38;;
68614;SDS011;55593;51.994;5.882;2024-01-16T01:20:09;11.95;;;2.80;;
68614;SDS011;55593;51.994;5.882;2024-01-16T01:22:42;11.10;;;2.72;;
68614;SDS011;55593;51.994;5.882;2024-01-16T01:25:12;13.98;;;3.10;;
68614;SDS011;55593;51.994;5.882;2024-01-16T01:27:42;11.50;;;2.88;;
68614;SDS011;55593;51.994;5.882;2024-01-16T01:30:11;9.18;;;2.38;;
68614;SDS011;55593;51.994;5.882;2024-01-16T01:32:40;10.93;;;2.85;;
68614;SDS011;55593;51.994;5.882;2024-01-16T01:35:09;7.80;;;2.45;;
68614;SDS011;55593;51.994;5.882;2024-01-16T01:37:42;9.00;;;2.50;;
68614;SDS011;55593;51.994;5.882;2024-01-16T01:40:12;10.93;;;2.63;;
68614;SDS011;55593;51.994;5.882;2024-01-16T01:42:41;10.68;;;3.17;;
68614;SDS011;55593;51.994;5.882;2024-01-16T01:45:10;14.10;;;2.75;;
68614;SDS011;55593;51.994;5.882;2024-01-16T01:47:40;10.55;;;2.65;;
68614;SDS011;55593;51.994;5.882;2024-01-16T01:50:10;12.00;;;2.75;;
68614;SDS011;55593;51.994;5.882;2024-01-16T01:52:42;13.88;;;2.60;;
68614;SDS011;55593;51.994;5.882;2024-01-16T01:55:12;11.73;;;2.78;;
68614;SDS011;55593;51.994;5.882;2024-01-16T01:57:42;11.05;;;3.00;;
68614;SDS011;55593;51.994;5.882;2024-01-16T02:00:12;12.98;;;2.45;;
68614;SDS011;55593;51.994;5.882;2024-01-16T02:02:43;11.77;;;2.28;;
68614;SDS011;55593;51.994;5.882;2024-01-16T02:05:13;7.90;;;2.15;;
68614;SDS011;55593;51.994;5.882;2024-01-16T02:07:44;10.20;;;2.42;;
68614;SDS011;55593;51.994;5.882;2024-01-16T02:10:14;14.05;;;2.83;;
68614;SDS011;55593;51.994;5.882;2024-01-16T02:12:43;7.80;;;2.22;;
68614;SDS011;55593;51.994;5.882;2024-01-16T02:15:12;8.63;;;2.55;;
68614;SDS011;55593;51.994;5.882;2024-01-16T02:17:41;13.13;;;3.13;;
68614;SDS011;55593;51.994;5.882;2024-01-16T02:20:11;7.47;;;2.45;;
68614;SDS011;55593;51.994;5.882;2024-01-16T02:22:40;10.32;;;3.20;;
68614;SDS011;55593;51.994;5.882;2024-01-16T02:25:17;9.15;;;2.75;;
68614;SDS011;55593;51.994;5.882;2024-01-16T02:27:47;10.68;;;2.72;;
68614;SDS011;55593;51.994;5.882;2024-01-16T02:30:16;19.05;;;2.90;;
68614;SDS011;55593;51.994;5.882;2024-01-16T02:32:45;10.20;;;2.85;;
68614;SDS011;55593;51.994;5.882;2024-01-16T02:35:14;16.73;;;3.25;;
68614;SDS011;55593;51.994;5.882;2024-01-16T02:37:44;15.55;;;3.78;;
68614;SDS011;55593;51.994;5.882;2024-01-16T02:40:13;14.73;;;4.00;;
68614;SDS011;55593;51.994;5.882;2024-01-16T02:42:45;9.70;;;4.03;;
68614;SDS011;55593;51.994;5.882;2024-01-16T02:45:14;12.52;;;4.18;;
68614;SDS011;55593;51.994;5.882;2024-01-16T02:47:43;15.90;;;4.35;;
68614;SDS011;55593;51.994;5.882;2024-01-16T02:50:12;11.52;;;3.78;;
68614;SDS011;55593;51.994;5.882;2024-01-16T02:52:41;13.20;;;4.00;;
68614;SDS011;55593;51.994;5.882;2024-01-16T02:55:11;10.30;;;4.07;;
68614;SDS011;55593;51.994;5.882;2024-01-16T02:57:40;16.38;;;4.30;;
68614;SDS011;55593;51.994;5.882;2024-01-16T03:00:12;14.20;;;6.22;;
68614;SDS011;55593;51.994;5.882;2024-01-16T03:02:43;14.18;;;3.95;;
68614;SDS011;55593;51.994;5.882;2024-01-16T03:05:12;17.13;;;4.15;;
68614;SDS011;55593;51.994;5.882;2024-01-16T03:07:42;18.55;;;5.28;;
68614;SDS011;55593;51.994;5.882;2024-01-16T03:10:11;12.75;;;3.78;;
68614;SDS011;55593;51.994;5.882;2024-01-16T03:12:40;12.20;;;3.95;;
68614;SDS011;55593;51.994;5.882;2024-01-16T03:15:12;11.23;;;3.78;;
68614;SDS011;55593;51.994;5.882;2024-01-16T03:17:41;15.40;;;4.00;;
68614;SDS011;55593;51.994;5.882;2024-01-16T03:20:11;15.65;;;3.88;;
68614;SDS011;55593;51.994;5.882;2024-01-16T03:22:40;19.63;;;5.35;;
68614;SDS011;55593;51.994;5.882;2024-01-16T03:25:10;15.05;;;3.90;;
68614;SDS011;55593;51.994;5.882;2024-01-16T03:27:40;23.73;;;4.97;;
68614;SDS011;55593;51.994;5.882;2024-01-16T03:30:12;14.55;;;3.60;;
68614;SDS011;55593;51.994;5.882;2024-01-16T03:32:42;14.15;;;4.20;;
68614;SDS011;55593;51.994;5.882;2024-01-16T03:35:11;9.07;;;3.50;;
68614;SDS011;55593;51.994;5.882;2024-01-16T03:37:40;13.55;;;3.95;;
68614;SDS011;55593;51.994;5.882;2024-01-16T03:40:10;11.13;;;3.75;;
68614;SDS011;55593;51.994;5.882;2024-01-16T03:42:40;11.90;;;4.05;;
68614;SDS011;55593;51.994;5.882;2024-01-16T03:45:12;11.98;;;3.67;;
68614;SDS011;55593;51.994;5.882;2024-01-16T03:47:41;10.88;;;3.88;;
68614;SDS011;55593;51.994;5.882;2024-01-16T03:50:11;14.18;;;4.82;;
68614;SDS011;55593;51.994;5.882;2024-01-16T03:52:40;15.52;;;4.70;;
68614;SDS011;55593;51.994;5.882;2024-01-16T03:55:09;11.63;;;5.72;;
68614;SDS011;55593;51.994;5.882;2024-01-16T03:57:38;18.75;;;5.82;;
68614;SDS011;55593;51.994;5.882;2024-01-16T04:00:08;14.52;;;5.63;;
68614;SDS011;55593;51.994;5.882;2024-01-16T04:02:43;14.55;;;5.68;;
68614;SDS011;55593;51.994;5.882;2024-01-16T04:05:12;10.95;;;4.85;;
68614;SDS011;55593;51.994;5.882;2024-01-16T04:07:41;15.55;;;4.95;;
68614;SDS011;55593;51.994;5.882;2024-01-16T04:10:10;18.00;;;4.90;;
68614;SDS011;55593;51.994;5.882;2024-01-16T04:12:39;16.38;;;5.30;;
68614;SDS011;55593;51.994;5.882;2024-01-16T04:15:09;11.13;;;4.93;;
68614;SDS011;55593;51.994;5.882;2024-01-16T04:17:40;11.23;;;5.15;;
68614;SDS011;55593;51.994;5.882;2024-01-16T04:20:10;10.88;;;4.35;;
68614;SDS011;55593;51.994;5.882;2024-01-16T04:22:40;15.52;;;5.05;;
68614;SDS011;55593;51.994;5.882;2024-01-16T04:25:09;12.98;;;4.55;;
68614;SDS011;55593;51.994;5.882;2024-01-16T04:27:39;10.80;;;4.60;;
68614;SDS011;55593;51.994;5.882;2024-01-16T04:30:08;8.13;;;4.28;;
68614;SDS011;55593;51.994;5.882;2024-01-16T04:32:40;7.25;;;3.85;;
68614;SDS011;55593;51.994;5.882;2024-01-16T04:35:09;12.70;;;4.72;;
68614;SDS011;55593;51.994;5.882;2024-01-16T04:37:39;7.85;;;4.72;;
68614;SDS011;55593;51.994;5.882;2024-01-16T04:40:08;8.38;;;3.60;;
68614;SDS011;55593;51.994;5.882;2024-01-16T04:42:38;8.73;;;3.67;;
68614;SDS011;55593;51.994;5.882;2024-01-16T04:45:08;8.38;;;3.83;;
68614;SDS011;55593;51.994;5.882;2024-01-16T04:47:40;12.38;;;3.97;;
68614;SDS011;55593;51.994;5.882;2024-01-16T04:50:10;8.35;;;3.60;;
68614;SDS011;55593;51.994;5.882;2024-01-16T04:52:39;15.95;;;4.10;;
68614;SDS011;55593;51.994;5.882;2024-01-16T04:55:09;10.65;;;4.60;;
68614;SDS011;55593;51.994;5.882;2024-01-16T04:57:38;12.20;;;4.20;;
68614;SDS011;55593;51.994;5.882;2024-01-16T05:00:07;16.40;;;4.30;;
68614;SDS011;55593;51.994;5.882;2024-01-16T05:02:38;9.63;;;3.60;;
68614;SDS011;55593;51.994;5.882;2024-01-16T05:05:09;12.05;;;4.13;;
68614;SDS011;55593;51.994;5.882;2024-01-16T05:07:39;10.52;;;4.22;;
68614;SDS011;55593;51.994;5.882;2024-01-16T05:10:09;13.02;;;5.10;;
68614;SDS011;55593;51.994;5.882;2024-01-16T05:12:39;11.50;;;5.22;;
68614;SDS011;55593;51.994;5.882;2024-01-16T05:15:08;12.90;;;4.80;;
68614;SDS011;55593;51.994;5.882;2024-01-16T05:17:41;15.65;;;5.97;;
68614;SDS011;55593;51.994;5.882;2024-01-16T05:20:11;11.93;;;4.85;;
68614;SDS011;55593;51.994;5.882;2024-01-16T05:22:40;12.00;;;4.70;;
68614;SDS011;55593;51.994;5.882;2024-01-16T05:25:10;15.55;;;5.18;;
68614;SDS011;55593;51.994;5.882;2024-01-16T05:27:39;12.27;;;5.43;;
68614;SDS011;55593;51.994;5.882;2024-01-16T05:30:09;15.32;;;6.05;;
68614;SDS011;55593;51.994;5.882;2024-01-16T05:32:42;18.90;;;5.88;;
68614;SDS011;55593;51.994;5.882;2024-01-16T05:35:11;17.38;;;6.97;;
68614;SDS011;55593;51.994;5.882;2024-01-16T05:37:40;15.18;;;5.75;;
68614;SDS011;55593;51.994;5.882;2024-01-16T05:40:09;12.50;;;6.63;;
68614;SDS011;55593;51.994;5.882;2024-01-16T05:42:39;13.27;;;5.97;;
68614;SDS011;55593;51.994;5.882;2024-01-16T05:45:08;15.75;;;5.70;;
68614;SDS011;55593;51.994;5.882;2024-01-16T05:47:42;9.45;;;5.03;;
68614;SDS011;55593;51.994;5.882;2024-01-16T05:50:11;9.63;;;4.25;;
68614;SDS011;55593;51.994;5.882;2024-01-16T05:52:42;10.32;;;3.92;;
68614;SDS011;55593;51.994;5.882;2024-01-16T05:55:11;14.85;;;3.42;;
68614;SDS011;55593;51.994;5.882;2024-01-16T05:57:43;10.23;;;2.90;;
68614;SDS011;55593;51.994;5.882;2024-01-16T06:00:13;10.70;;;2.30;;
68614;SDS011;55593;51.994;5.882;2024-01-16T06:02:46;6.40;;;2.80;;
68614;SDS011;55593;51.994;5.882;2024-01-16T06:05:15;12.07;;;3.50;;
68614;SDS011;55593;51.994;5.882;2024-01-16T06:07:44;10.45;;;2.92;;
68614;SDS011;55593;51.994;5.882;2024-01-16T06:10:13;9.27;;;2.58;;
68614;SDS011;55593;51.994;5.882;2024-01-16T06:12:43;11.48;;;2.90;;
68614;SDS011;55593;51.994;5.882;2024-01-16T06:15:12;7.78;;;2.58;;
68614;SDS011;55593;51.994;5.882;2024-01-16T06:17:41;8.40;;;2.33;;
68614;SDS011;55593;51.994;5.882;2024-01-16T06:20:13;14.50;;;2.67;;
68614;SDS011;55593;51.994;5.882;2024-01-16T06:22:42;8.90;;;2.33;;
68614;SDS011;55593;51.994;5.882;2024-01-16T06:25:11;11.68;;;3.25;;
68614;SDS011;55593;51.994;5.882;2024-01-16T06:27:40;10.15;;;3.28;;
68614;SDS011;55593;51.994;5.882;2024-01-16T06:30:07;8.52;;;2.97;;
68614;SDS011;55593;51.994;5.882;2024-01-16T06:32:37;9.10;;;2.95;;
68614;SDS011;55593;51.994;5.882;2024-01-16T06:35:07;13.30;;;3.10;;
68614;SDS011;55593;51.994;5.882;2024-01-16T06:37:38;13.38;;;3.03;;
68614;SDS011;55593;51.994;5.882;2024-01-16T06:40:08;10.30;;;3.17;;
68614;SDS011;55593;51.994;5.882;2024-01-16T06:42:38;9.75;;;3.22;;
68614;SDS011;55593;51.994;5.882;2024-01-16T06:45:08;14.32;;;3.05;;
68614;SDS011;55593;51.994;5.882;2024-01-16T06:47:38;10.20;;;3.65;;
68614;SDS011;55593;51.994;5.882;2024-01-16T06:50:08;11.07;;;3.90;;
68614;SDS011;55593;51.994;5.882;2024-01-16T06:52:40;14.32;;;3.95;;
68614;SDS011;55593;51.994;5.882;2024-01-16T06:55:09;9.95;;;3.50;;
68614;SDS011;55593;51.994;5.882;2024-01-16T06:57:38;9.38;;;4.00;;
68614;SDS011;55593;51.994;5.882;2024-01-16T07:00:08;13.60;;;4.10;;
68614;SDS011;55593;51.994;5.882;2024-01-16T07:02:38;18.10;;;4.53;;
68614;SDS011;55593;51.994;5.882;2024-01-16T07:05:09;15.50;;;4.32;;
68614;SDS011;55593;51.994;5.882;2024-01-16T07:07:41;12.85;;;4.65;;
68614;SDS011;55593;51.994;5.882;2024-01-16T07:10:11;16.95;;;4.78;;
68614;SDS011;55593;51.994;5.882;2024-01-16T07:12:44;16.40;;;4.40;;
68614;SDS011;55593;51.994;5.882;2024-01-16T07:15:15;11.43;;;4.32;;
68614;SDS011;55593;51.994;5.882;2024-01-16T07:17:44;14.57;;;5.13;;
68614;SDS011;55593;51.994;5.882;2024-01-16T07:20:13;10.00;;;4.45;;
68614;SDS011;55593;51.994;5.882;2024-01-16T07:22:45;12.75;;;4.05;;
68614;SDS011;55593;51.994;5.882;2024-01-16T07:25:14;16.67;;;4.82;;
68614;SDS011;55593;51.994;5.882;2024-01-16T07:27:43;22.70;;;4.70;;
68614;SDS011;55593;51.994;5.882;2024-01-16T07:30:15;11.45;;;4.50;;
68614;SDS011;55593;51.994;5.882;2024-01-16T07:32:45;11.77;;;4.30;;
68614;SDS011;55593;51.994;5.882;2024-01-16T07:35:14;15.43;;;4.72;;
68614;SDS011;55593;51.994;5.882;2024-01-16T07:37:46;11.15;;;4.55;;
68614;SDS011;55593;51.994;5.882;2024-01-16T07:40:15;12.20;;;5.38;;
68614;SDS011;55593;51.994;5.882;2024-01-16T07:42:42;18.90;;;5.20;;
68614;SDS011;55593;51.994;5.882;2024-01-16T07:45:12;17.70;;;6.60;;
68614;SDS011;55593;51.994;5.882;2024-01-16T07:47:41;13.50;;;5.13;;
68614;SDS011;55593;51.994;5.882;2024-01-16T07:50:10;15.15;;;6.55;;
68614;SDS011;55593;51.994;5.882;2024-01-16T07:52:39;16.90;;;5.55;;
68614;SDS011;55593;51.994;5.882;2024-01-16T07:55:11;18.92;;;6.65;;
68614;SDS011;55593;51.994;5.882;2024-01-16T07:57:40;15.00;;;6.07;;
68614;SDS011;55593;51.994;5.882;2024-01-16T08:00:10;19.42;;;7.82;;
68614;SDS011;55593;51.994;5.882;2024-01-16T08:02:41;21.85;;;8.98;;
68614;SDS011;55593;51.994;5.882;2024-01-16T08:05:10;14.70;;;7.78;;
68614;SDS011;55593;51.994;5.882;2024-01-16T08:07:40;19.30;;;8.35;;
68614;SDS011;55593;51.994;5.882;2024-01-16T08:10:13;21.42;;;9.48;;
68614;SDS011;55593;51.994;5.882;2024-01-16T08:12:43;20.38;;;9.60;;
68614;SDS011;55593;51.994;5.882;2024-01-16T08:15:12;22.90;;;9.63;;
68614;SDS011;55593;51.994;5.882;2024-01-16T08:17:41;18.85;;;10.18;;
68614;SDS011;55593;51.994;5.882;2024-01-16T08:20:11;19.63;;;8.93;;
68614;SDS011;55593;51.994;5.882;2024-01-16T08:22:41;21.50;;;9.82;;
68614;SDS011;55593;51.994;5.882;2024-01-16T08:25:10;24.20;;;10.02;;
68614;SDS011;55593;51.994;5.882;2024-01-16T08:27:41;20.90;;;10.00;;
68614;SDS011;55593;51.994;5.882;2024-01-16T08:30:11;22.98;;;9.98;;
68614;SDS011;55593;51.994;5.882;2024-01-16T08:32:41;18.48;;;9.75;;
68614;SDS011;55593;51.994;5.882;2024-01-16T08:35:10;18.77;;;8.85;;
68614;SDS011;55593;51.994;5.882;2024-01-16T08:37:39;17.08;;;8.70;;
68614;SDS011;55593;51.994;5.882;2024-01-16T08:40:09;21.23;;;9.38;;
68614;SDS011;55593;51.994;5.882;2024-01-16T08:42:41;15.25;;;9.10;;
68614;SDS011;55593;51.994;5.882;2024-01-16T08:45:10;18.02;;;9.30;;
68614;SDS011;55593;51.994;5.882;2024-01-16T08:47:40;19.52;;;9.68;;
68614;SDS011;55593;51.994;5.882;2024-01-16T08:50:09;18.13;;;9.40;;
68614;SDS011;55593;51.994;5.882;2024-01-16T08:52:39;21.15;;;9.70;;
68614;SDS011;55593;51.994;5.882;2024-01-16T08:55:08;23.48;;;9.13;;
68614;SDS011;55593;51.994;5.882;2024-01-16T08:57:37;20.15;;;8.55;;
68614;SDS011;55593;51.994;5.882;2024-01-16T09:00:10;17.75;;;8.27;;
68614;SDS011;55593;51.994;5.882;2024-01-16T09:02:41;19.00;;;7.70;;
68614;SDS011;55593;51.994;5.882;2024-01-16T09:05:10;16.95;;;9.48;;
68614;SDS011;55593;51.994;5.882;2024-01-16T09:07:40;17.77;;;8.10;;
68614;SDS011;55593;51.994;5.882;2024-01-16T09:10:10;18.10;;;7.35;;
68614;SDS011;55593;51.994;5.882;2024-01-16T09:12:39;14.98;;;6.82;;
68614;SDS011;55593;51.994;5.882;2024-01-16T09:15:11;14.95;;;6.53;;
68614;SDS011;55593;51.994;5.882;2024-01-16T09:17:41;17.23;;;7.18;;
68614;SDS011;55593;51.994;5.882;2024-01-16T09:20:11;17.52;;;6.82;;
68614;SDS011;55593;51.994;5.882;2024-01-16T09:22:40;17.70;;;5.72;;
68614;SDS011;55593;51.994;5.882;2024-01-16T09:25:09;16.83;;;6.55;;
68614;SDS011;55593;51.994;5.882;2024-01-16T09:27:38;17.55;;;5.68;;
68614;SDS011;55593;51.994;5.882;2024-01-16T09:30:08;16.25;;;6.13;;
68614;SDS011;55593;51.994;5.882;2024-01-16T09:32:40;10.38;;;6.07;;
68614;SDS011;55593;51.994;5.882;2024-01-16T09:35:11;21.50;;;6.78;;
68614;SDS011;55593;51.994;5.882;2024-01-16T09:37:40;17.67;;;5.88;;
68614;SDS011;55593;51.994;5.882;2024-01-16T09:40:10;15.25;;;5.88;;
68614;SDS011;55593;51.994;5.882;2024-01-16T09:42:39;12.90;;;5.47;;
68614;SDS011;55593;51.994;5.882;2024-01-16T09:45:11;19.65;;;5.55;;
68614;SDS011;55593;51.994;5.882;2024-01-16T09:47:43;15.70;;;6.90;;
68614;SDS011;55593;51.994;5.882;2024-01-16T09:50:12;20.08;;;5.43;;
68614;SDS011;55593;51.994;5.882;2024-01-16T09:52:43;11.25;;;5.32;;
68614;SDS011;55593;51.994;5.882;2024-01-16T09:55:14;23.52;;;5.80;;
68614;SDS011;55593;51.994;5.882;2024-01-16T09:57:45;18.48;;;6.15;;
68614;SDS011;55593;51.994;5.882;2024-01-16T10:00:17;12.90;;;5.00;;
68614;SDS011;55593;51.994;5.882;2024-01-16T10:02:47;19.20;;;6.15;;
68614;SDS011;55593;51.994;5.882;2024-01-16T10:05:16;18.75;;;5.10;;
68614;SDS011;55593;51.994;5.882;2024-01-16T10:07:46;17.92;;;5.95;;
68614;SDS011;55593;51.994;5.882;2024-01-16T10:10:16;13.10;;;6.28;;
68614;SDS011;55593;51.994;5.882;2024-01-16T10:12:46;17.23;;;5.00;;
68614;SDS011;55593;51.994;5.882;2024-01-16T10:15:19;15.75;;;4.75;;
68614;SDS011;55593;51.994;5.882;2024-01-16T10:17:49;13.98;;;4.80;;
68614;SDS011;55593;51.994;5.882;2024-01-16T10:20:31;18.10;;;5.40;;
68614;SDS011;55593;51.994;5.882;2024-01-16T10:23:00;16.65;;;5.70;;
68614;SDS011;55593;51.994;5.882;2024-01-16T10:25:29;15.02;;;5.35;;
68614;SDS011;55593;51.994;5.882;2024-01-16T10:28:04;13.48;;;5.45;;
68614;SDS011;55593;51.994;5.882;2024-01-16T10:30:39;17.23;;;4.95;;
68614;SDS011;55593;51.994;5.882;2024-01-16T10:33:13;15.93;;;5.10;;
68614;SDS011;55593;51.994;5.882;2024-01-16T10:35:43;13.85;;;5.25;;
68614;SDS011;55593;51.994;5.882;2024-01-16T10:38:14;11.63;;;5.35;;
68614;SDS011;55593;51.994;5.882;2024-01-16T10:40:51;16.75;;;5.15;;
68614;SDS011;55593;51.994;5.882;2024-01-16T10:43:33;14.10;;;4.82;;
68614;SDS011;55593;51.994;5.882;2024-01-16T10:46:12;15.10;;;4.72;;
68614;SDS011;55593;51.994;5.882;2024-01-16T10:48:43;15.00;;;5.97;;
68614;SDS011;55593;51.994;5.882;2024-01-16T10:51:13;13.43;;;4.97;;
68614;SDS011;55593;51.994;5.882;2024-01-16T10:53:45;12.65;;;4.63;;
68614;SDS011;55593;51.994;5.882;2024-01-16T10:56:16;16.70;;;4.70;;
68614;SDS011;55593;51.994;5.882;2024-01-16T10:58:46;13.02;;;4.82;;
68614;SDS011;55593;51.994;5.882;2024-01-16T11:01:26;10.02;;;4.80;;
68614;SDS011;55593;51.994;5.882;2024-01-16T11:03:55;11.82;;;4.70;;
68614;SDS011;55593;51.994;5.882;2024-01-16T11:06:25;10.07;;;4.40;;
68614;SDS011;55593;51.994;5.882;2024-01-16T11:08:55;11.45;;;4.35;;
68614;SDS011;55593;51.994;5.882;2024-01-16T11:11:25;15.45;;;5.25;;
68614;SDS011;55593;51.994;5.882;2024-01-16T11:13:55;10.63;;;4.20;;
68614;SDS011;55593;51.994;5.882;2024-01-16T11:16:27;9.77;;;4.60;;
68614;SDS011;55593;51.994;5.882;2024-01-16T11:19:00;15.55;;;4.38;;
68614;SDS011;55593;51.994;5.882;2024-01-16T11:21:31;8.38;;;4.03;;
68614;SDS011;55593;51.994;5.882;2024-01-16T11:24:01;11.43;;;4.40;;
68614;SDS011;55593;51.994;5.882;2024-01-16T11:26:31;9.85;;;4.07;;
68614;SDS011;55593;51.994;5.882;2024-01-16T11:32:04;12.02;;;3.50;;
68614;SDS011;55593;51.994;5.882;2024-01-16T11:37:27;13.48;;;4.53;;
68614;SDS011;55593;51.994;5.882;2024-01-16T11:42:52;9.38;;;3.80;;
68614;SDS011;55593;51.994;5.882;2024-01-16T11:48:22;10.73;;;4.10;;
68614;SDS011;55593;51.994;5.882;2024-01-16T11:50:51;7.57;;;4.07;;
68614;SDS011;55593;51.994;5.882;2024-01-16T11:53:33;11.30;;;4.05;;
68614;SDS011;55593;51.994;5.882;2024-01-16T11:59:10;13.77;;;4.40;;
68614;SDS011;55593;51.994;5.882;2024-01-16T12:01:48;11.48;;;4.40;;
68614;SDS011;55593;51.994;5.882;2024-01-16T12:04:22;8.98;;;4.15;;
68614;SDS011;55593;51.994;5.882;2024-01-16T12:06:56;12.98;;;4.22;;
68614;SDS011;55593;51.994;5.882;2024-01-16T12:09:27;7.47;;;4.25;;
68614;SDS011;55593;51.994;5.882;2024-01-16T12:11:57;10.30;;;4.65;;
68614;SDS011;55593;51.994;5.882;2024-01-16T12:14:27;12.80;;;4.60;;
68614;SDS011;55593;51.994;5.882;2024-01-16T12:17:07;11.77;;;4.15;;
68614;SDS011;55593;51.994;5.882;2024-01-16T12:19:40;12.23;;;4.43;;
68614;SDS011;55593;51.994;5.882;2024-01-16T12:22:09;8.20;;;4.72;;
68614;SDS011;55593;51.994;5.882;2024-01-16T12:24:39;11.45;;;4.55;;
68614;SDS011;55593;51.994;5.882;2024-01-16T12:27:08;18.58;;;4.80;;
68614;SDS011;55593;51.994;5.882;2024-01-16T12:29:37;10.05;;;4.18;;
68614;SDS011;55593;51.994;5.882;2024-01-16T12:32:07;14.73;;;4.93;;
68614;SDS011;55593;51.994;5.882;2024-01-16T12:34:46;6.55;;;4.40;;
68614;SDS011;55593;51.994;5.882;2024-01-16T12:37:16;10.73;;;4.53;;
68614;SDS011;55593;51.994;5.882;2024-01-16T12:39:45;10.98;;;4.35;;
68614;SDS011;55593;51.994;5.882;2024-01-16T12:42:17;11.38;;;4.85;;
68614;SDS011;55593;51.994;5.882;2024-01-16T12:44:47;11.35;;;4.97;;
68614;SDS011;55593;51.994;5.882;2024-01-16T12:47:16;17.77;;;4.85;;
68614;SDS011;55593;51.994;5.882;2024-01-16T12:49:50;13.52;;;5.38;;
68614;SDS011;55593;51.994;5.882;2024-01-16T12:52:20;11.80;;;4.65;;
68614;SDS011;55593;51.994;5.882;2024-01-16T12:54:58;11.15;;;4.40;;
68614;SDS011;55593;51.994;5.882;2024-01-16T12:57:30;11.38;;;4.68;;
68614;SDS011;55593;51.994;5.882;2024-01-16T13:00:00;13.88;;;4.45;;
68614;SDS011;55593;51.994;5.882;2024-01-16T13:02:30;11.05;;;4.60;;
68614;SDS011;55593;51.994;5.882;2024-01-16T13:05:02;10.00;;;4.93;;
68614;SDS011;55593;51.994;5.882;2024-01-16T13:07:33;9.43;;;4.75;;
68614;SDS011;55593;51.994;5.882;2024-01-16T13:10:06;13.40;;;5.75;;
68614;SDS011;55593;51.994;5.882;2024-01-16T13:12:38;9.30;;;4.38;;
68614;SDS011;55593;51.994;5.882;2024-01-16T13:15:07;11.68;;;4.88;;
68614;SDS011;55593;51.994;5.882;2024-01-16T13:17:37;16.58;;;5.30;;
68614;SDS011;55593;51.994;5.882;2024-01-16T13:20:09;8.90;;;4.63;;
68614;SDS011;55593;51.994;5.882;2024-01-16T13:22:40;14.40;;;4.63;;
68614;SDS011;55593;51.994;5.882;2024-01-16T13:25:09;7.95;;;4.28;;
68614;SDS011;55593;51.994;5.882;2024-01-16T13:27:38;14.80;;;5.50;;
68614;SDS011;55593;51.994;5.882;2024-01-16T13:30:08;18.23;;;6.32;;
68614;SDS011;55593;51.994;5.882;2024-01-16T13:32:39;12.07;;;4.72;;
68614;SDS011;55593;51.994;5.882;2024-01-16T13:35:10;9.73;;;4.88;;
68614;SDS011;55593;51.994;5.882;2024-01-16T13:37:40;11.02;;;4.38;;
68614;SDS011;55593;51.994;5.882;2024-01-16T13:40:09;12.52;;;5.10;;
68614;SDS011;55593;51.994;5.882;2024-01-16T13:42:41;14.75;;;4.78;;
68614;SDS011;55593;51.994;5.882;2024-01-16T13:45:10;10.38;;;4.88;;
68614;SDS011;55593;51.994;5.882;2024-01-16T13:47:39;13.27;;;4.93;;
68614;SDS011;55593;51.994;5.882;2024-01-16T13:50:11;15.07;;;4.75;;
68614;SDS011;55593;51.994;5.882;2024-01-16T13:52:41;10.60;;;5.25;;
68614;SDS011;55593;51.994;5.882;2024-01-16T13:55:10;9.75;;;4.63;;
68614;SDS011;55593;51.994;5.882;2024-01-16T13:57:39;11.95;;;4.72;;
68614;SDS011;55593;51.994;5.882;2024-01-16T14:00:09;11.60;;;4.55;;
68614;SDS011;55593;51.994;5.882;2024-01-16T14:02:41;10.20;;;4.75;;
68614;SDS011;55593;51.994;5.882;2024-01-16T14:05:14;10.23;;;4.72;;
68614;SDS011;55593;51.994;5.882;2024-01-16T14:07:44;10.82;;;4.30;;
68614;SDS011;55593;51.994;5.882;2024-01-16T14:10:16;13.13;;;4.97;;
68614;SDS011;55593;51.994;5.882;2024-01-16T14:12:48;12.52;;;4.95;;
68614;SDS011;55593;51.994;5.882;2024-01-16T14:15:19;10.93;;;4.70;;
68614;SDS011;55593;51.994;5.882;2024-01-16T14:17:50;12.38;;;6.03;;
68614;SDS011;55593;51.994;5.882;2024-01-16T14:20:23;11.63;;;4.72;;
68614;SDS011;55593;51.994;5.882;2024-01-16T14:22:53;11.30;;;5.18;;
68614;SDS011;55593;51.994;5.882;2024-01-16T14:25:23;11.05;;;5.10;;
68614;SDS011;55593;51.994;5.882;2024-01-16T14:27:56;8.95;;;4.65;;
68614;SDS011;55593;51.994;5.882;2024-01-16T14:30:29;14.10;;;4.72;;
68614;SDS011;55593;51.994;5.882;2024-01-16T14:32:58;13.60;;;4.80;;
68614;SDS011;55593;51.994;5.882;2024-01-16T14:35:30;11.52;;;4.35;;
68614;SDS011;55593;51.994;5.882;2024-01-16T14:37:59;13.40;;;4.68;;
68614;SDS011;55593;51.994;5.882;2024-01-16T14:40:29;12.50;;;4.90;;
68614;SDS011;55593;51.994;5.882;2024-01-16T14:42:58;12.43;;;4.63;;
68614;SDS011;55593;51.994;5.882;2024-01-16T14:45:30;12.80;;;4.72;;
68614;SDS011;55593;51.994;5.882;2024-01-16T14:47:59;11.40;;;4.65;;
68614;SDS011;55593;51.994;5.882;2024-01-16T14:50:32;9.95;;;4.47;;
68614;SDS011;55593;51.994;5.882;2024-01-16T14:53:01;9.93;;;3.95;;
68614;SDS011;55593;51.994;5.882;2024-01-16T14:55:31;10.85;;;3.90;;
68614;SDS011;55593;51.994;5.882;2024-01-16T14:58:00;11.00;;;4.90;;
68614;SDS011;55593;51.994;5.882;2024-01-16T15:00:30;10.65;;;4.25;;
68614;SDS011;55593;51.994;5.882;2024-01-16T15:02:59;20.90;;;4.30;;
68614;SDS011;55593;51.994;5.882;2024-01-16T15:05:29;10.60;;;4.10;;
68614;SDS011;55593;51.994;5.882;2024-01-16T15:08:01;8.85;;;4.43;;